Time;durP1;ratioP1;P1;durP2;ratioP2;P2;SDS_P1;SDS_P2;PMS_P1;PMS_P2;Temp;Humidity;BMP_temperature;BMP_pressure;BME280_temperature;BME280_humidity;BME280_pressure;Samples;Min_cycle;Max_cycle;Signal;HPM_P1;HPM_P2
2021/10/27 00:00:50;;;;;;;14.48;13.07;;;;;;;;;;5107872;28;24931;-58
2021/10/27 00:03:16;;;;;;;14.57;13.17;;;;;;;;;;5103701;28;24892;-58
2021/10/27 00:05:41;;;;;;;13.48;12.10;;;;;;;;;;5101733;28;24581;-60
2021/10/27 00:08:06;;;;;;;15.03;13.53;;;;;;;;;;5103758;28;24401;-59
2021/10/27 00:10:31;;;;;;;16.23;14.63;;;;;;;;;;5104102;28;24446;-59
2021/10/27 00:12:56;;;;;;;14.73;13.18;;;;;;;;;;5107635;28;24495;-59
2021/10/27 00:15:22;;;;;;;14.50;13.00;;;;;;;;;;5105122;28;24420;-59
2021/10/27 00:17:47;;;;;;;15.27;13.70;;;;;;;;;;5105578;28;24390;-59
2021/10/27 00:20:14;;;;;;;14.60;13.20;;;;;;;;;;5103541;28;24431;-59
2021/10/27 00:22:39;;;;;;;14.52;13.13;;;;;;;;;;5101692;28;24502;-59
2021/10/27 00:25:06;;;;;;;14.20;12.70;;;;;;;;;;5103358;28;24655;-59
2021/10/27 00:27:31;;;;;;;15.10;13.50;;;;;;;;;;5105268;28;24477;-59
2021/10/27 00:29:56;;;;;;;16.00;14.50;;;;;;;;;;5099136;28;24520;-59
2021/10/27 00:32:21;;;;;;;15.75;14.23;;;;;;;;;;5084599;28;24880;-60
2021/10/27 00:34:46;;;;;;;15.27;13.85;;;;;;;;;;5080833;28;24475;-59
2021/10/27 00:37:11;;;;;;;16.05;14.50;;;;;;;;;;5083212;28;24405;-59
2021/10/27 00:39:37;;;;;;;16.70;15.00;;;;;;;;;;5083121;28;24801;-59
2021/10/27 00:42:03;;;;;;;16.23;14.53;;;;;;;;;;5084670;28;24443;-60
2021/10/27 00:44:29;;;;;;;16.20;14.70;;;;;;;;;;5084503;28;24406;-59
2021/10/27 00:47:02;;;;;;;17.87;16.00;;;;;;;;;;5086654;28;24493;-59
2021/10/27 00:49:29;;;;;;;17.63;15.85;;;;;;;;;;5080939;28;24407;-59
2021/10/27 00:51:54;;;;;;;18.27;16.58;;;;;;;;;;5081095;28;24466;-59
2021/10/27 00:54:20;;;;;;;17.47;15.77;;;;;;;;;;5080436;28;24449;-59
2021/10/27 00:56:45;;;;;;;18.50;16.60;;;;;;;;;;5086185;28;24421;-59
2021/10/27 00:59:10;;;;;;;18.60;16.67;;;;;;;;;;5084543;28;24721;-60
2021/10/27 01:01:35;;;;;;;18.73;16.83;;;;;;;;;;5086016;28;24991;-59
2021/10/27 01:04:01;;;;;;;21.00;18.00;;;;;;;;;;5084078;28;24390;-59
2021/10/27 01:06:26;;;;;;;19.70;17.80;;;;;;;;;;5080676;28;24394;-58
2021/10/27 01:08:52;;;;;;;19.63;17.63;;;;;;;;;;5081743;28;24402;-59
2021/10/27 01:11:17;;;;;;;20.47;18.37;;;;;;;;;;5083023;28;24848;-60
2021/10/27 01:13:42;;;;;;;19.00;17.13;;;;;;;;;;5086284;28;24477;-59
2021/10/27 01:16:07;;;;;;;19.80;17.80;;;;;;;;;;5085791;28;24742;-58
2021/10/27 01:18:34;;;;;;;21.98;19.77;;;;;;;;;;5083837;28;24396;-58
2021/10/27 01:20:59;;;;;;;21.05;19.00;;;;;;;;;;5081839;28;24406;-58
2021/10/27 01:23:24;;;;;;;19.30;17.40;;;;;;;;;;5080227;28;24403;-58
2021/10/27 01:25:50;;;;;;;19.63;17.73;;;;;;;;;;5083731;28;24486;-59
2021/10/27 01:28:15;;;;;;;21.30;19.10;;;;;;;;;;5083981;28;24843;-58
2021/10/27 01:30:40;;;;;;;21.00;18.90;;;;;;;;;;5099609;28;24402;-59
2021/10/27 01:33:05;;;;;;;23.00;20.80;;;;;;;;;;5105827;28;24408;-58
2021/10/27 01:35:30;;;;;;;20.93;18.70;;;;;;;;;;5102086;28;24897;-58
2021/10/27 01:37:56;;;;;;;20.30;18.20;;;;;;;;;;5100269;28;25048;-59
2021/10/27 01:40:21;;;;;;;20.30;18.20;;;;;;;;;;5101809;28;24414;-58
2021/10/27 01:42:47;;;;;;;20.90;18.80;;;;;;;;;;5105871;28;24384;-58
2021/10/27 01:45:12;;;;;;;20.03;17.93;;;;;;;;;;5103429;28;24441;-58
2021/10/27 01:47:41;;;;;;;19.93;17.70;;;;;;;;;;5105236;28;24482;-59
2021/10/27 01:50:06;;;;;;;21.33;19.13;;;;;;;;;;5101905;28;24397;-58
2021/10/27 01:52:32;;;;;;;20.17;18.08;;;;;;;;;;5100135;28;24404;-58
2021/10/27 01:54:57;;;;;;;20.37;18.27;;;;;;;;;;5100697;28;24413;-60
2021/10/27 01:57:22;;;;;;;21.02;18.83;;;;;;;;;;5103621;28;24403;-58
2021/10/27 01:59:47;;;;;;;20.57;18.67;;;;;;;;;;5105295;28;24394;-58
2021/10/27 02:02:12;;;;;;;21.00;18.83;;;;;;;;;;5101525;28;24462;-59
2021/10/27 02:04:38;;;;;;;21.50;19.30;;;;;;;;;;5101570;28;25141;-58
2021/10/27 02:07:03;;;;;;;20.55;18.52;;;;;;;;;;5100209;28;24390;-58
2021/10/27 02:09:29;;;;;;;21.20;19.00;;;;;;;;;;5101312;28;24450;-58
2021/10/27 02:11:55;;;;;;;21.27;19.17;;;;;;;;;;5105194;28;24405;-58
2021/10/27 02:14:20;;;;;;;22.77;20.47;;;;;;;;;;5102995;28;24397;-58
2021/10/27 02:16:45;;;;;;;22.52;20.20;;;;;;;;;;5105134;28;24401;-58
2021/10/27 02:19:10;;;;;;;22.03;19.70;;;;;;;;;;5103105;28;24397;-58
2021/10/27 02:21:36;;;;;;;23.50;19.97;;;;;;;;;;5099522;28;24397;-58
2021/10/27 02:24:01;;;;;;;22.53;20.23;;;;;;;;;;5099146;28;24820;-58
2021/10/27 02:26:26;;;;;;;21.90;19.50;;;;;;;;;;5102645;28;25026;-58
2021/10/27 02:28:52;;;;;;;22.43;20.03;;;;;;;;;;5104896;28;24684;-58
2021/10/27 02:31:17;;;;;;;22.50;20.10;;;;;;;;;;5083292;28;24426;-58
2021/10/27 02:33:42;;;;;;;21.93;19.13;;;;;;;;;;5080856;28;24903;-58
2021/10/27 02:36:08;;;;;;;21.40;19.20;;;;;;;;;;5080484;28;24551;-58
2021/10/27 02:38:33;;;;;;;21.92;19.63;;;;;;;;;;5080410;28;24495;-58
2021/10/27 02:40:58;;;;;;;23.10;20.50;;;;;;;;;;5080747;28;24401;-58
2021/10/27 02:43:23;;;;;;;22.58;20.25;;;;;;;;;;5084021;28;24390;-58
2021/10/27 02:45:48;;;;;;;21.70;19.40;;;;;;;;;;5084242;28;24719;-58
2021/10/27 02:48:14;;;;;;;24.10;21.60;;;;;;;;;;5082281;28;24405;-58
2021/10/27 02:50:40;;;;;;;22.40;20.10;;;;;;;;;;5078494;28;24463;-58
2021/10/27 02:53:05;;;;;;;21.90;19.60;;;;;;;;;;5080418;28;24402;-58
2021/10/27 02:55:31;;;;;;;26.50;23.73;;;;;;;;;;5081990;28;24449;-58
2021/10/27 02:57:57;;;;;;;22.40;20.00;;;;;;;;;;5084105;28;24539;-57
2021/10/27 03:00:22;;;;;;;22.50;20.10;;;;;;;;;;5081927;28;24398;-58
2021/10/27 03:02:47;;;;;;;24.50;20.37;;;;;;;;;;5084218;28;24440;-57
2021/10/27 03:05:13;;;;;;;21.60;19.30;;;;;;;;;;5081834;28;24391;-58
2021/10/27 03:07:38;;;;;;;23.25;20.40;;;;;;;;;;5078412;28;24459;-58
2021/10/27 03:10:03;;;;;;;22.50;20.20;;;;;;;;;;5078509;28;24497;-58
2021/10/27 03:12:28;;;;;;;23.15;20.85;;;;;;;;;;5083798;28;24753;-58
2021/10/27 03:14:54;;;;;;;22.93;20.43;;;;;;;;;;5083736;28;24465;-58
2021/10/27 03:17:19;;;;;;;22.00;19.80;;;;;;;;;;5081753;28;24418;-58
2021/10/27 03:19:44;;;;;;;22.30;18.93;;;;;;;;;;5080167;28;24741;-59
2021/10/27 03:22:10;;;;;;;21.70;19.40;;;;;;;;;;5079977;28;24493;-59
2021/10/27 03:24:35;;;;;;;23.80;21.30;;;;;;;;;;5079961;28;24398;-58
2021/10/27 03:27:00;;;;;;;21.55;19.25;;;;;;;;;;5082212;28;24379;-58
2021/10/27 03:29:25;;;;;;;20.97;18.83;;;;;;;;;;5085029;28;24405;-58
2021/10/27 03:31:50;;;;;;;21.33;19.03;;;;;;;;;;5103670;28;24421;-58
2021/10/27 03:34:16;;;;;;;22.47;20.07;;;;;;;;;;5099926;28;25054;-58
2021/10/27 03:36:41;;;;;;;22.10;19.80;;;;;;;;;;5098342;28;25017;-59
2021/10/27 03:39:06;;;;;;;22.40;19.13;;;;;;;;;;5099930;28;24462;-58
2021/10/27 03:41:31;;;;;;;21.30;19.10;;;;;;;;;;5102063;28;24393;-58
2021/10/27 03:43:57;;;;;;;21.73;19.05;;;;;;;;;;5104021;28;24394;-58
2021/10/27 03:46:23;;;;;;;21.50;19.20;;;;;;;;;;5101583;28;25000;-58
2021/10/27 03:48:48;;;;;;;22.75;20.45;;;;;;;;;;5098399;28;25029;-59
2021/10/27 03:51:14;;;;;;;22.00;19.90;;;;;;;;;;5098415;28;24524;-59
2021/10/27 03:53:40;;;;;;;22.70;20.30;;;;;;;;;;5101791;28;24857;-59
2021/10/27 03:56:05;;;;;;;22.33;19.93;;;;;;;;;;5103741;28;24482;-59
2021/10/27 03:58:33;;;;;;;21.50;19.40;;;;;;;;;;5101775;28;24889;-59
2021/10/27 04:00:58;;;;;;;20.92;18.63;;;;;;;;;;5101647;28;24755;-59
2021/10/27 04:03:23;;;;;;;21.50;19.30;;;;;;;;;;5098082;28;24533;-59
2021/10/27 04:05:49;;;;;;;23.00;19.57;;;;;;;;;;5099697;28;24492;-59
2021/10/27 04:08:14;;;;;;;22.73;20.33;;;;;;;;;;5099745;28;24472;-59
2021/10/27 04:10:39;;;;;;;22.77;20.37;;;;;;;;;;5101765;28;24939;-59
2021/10/27 04:13:04;;;;;;;21.87;19.57;;;;;;;;;;5103685;28;25024;-59
2021/10/27 04:15:29;;;;;;;24.17;20.17;;;;;;;;;;5101363;28;24516;-59
2021/10/27 04:17:55;;;;;;;23.57;19.93;;;;;;;;;;5101680;28;24397;-59
2021/10/27 04:20:20;;;;;;;22.38;20.17;;;;;;;;;;5101709;28;24810;-60
2021/10/27 04:22:45;;;;;;;22.00;19.80;;;;;;;;;;5101375;28;24451;-60
2021/10/27 04:25:10;;;;;;;22.63;19.70;;;;;;;;;;5105223;28;24397;-59
2021/10/27 04:27:35;;;;;;;22.00;19.70;;;;;;;;;;5105433;28;24399;-57
2021/10/27 04:30:01;;;;;;;22.83;20.42;;;;;;;;;;5098398;28;24429;-58
2021/10/27 04:32:26;;;;;;;22.27;20.07;;;;;;;;;;5084529;28;25019;-58
2021/10/27 04:34:51;;;;;;;20.87;18.87;;;;;;;;;;5082863;28;24419;-58
2021/10/27 04:37:19;;;;;;;24.30;21.80;;;;;;;;;;5082339;28;24425;-58
2021/10/27 04:39:44;;;;;;;23.00;20.60;;;;;;;;;;5082919;28;24402;-58
2021/10/27 04:42:09;;;;;;;23.27;20.77;;;;;;;;;;5083150;28;24439;-58
2021/10/27 04:44:34;;;;;;;21.90;19.70;;;;;;;;;;5086644;28;24456;-58
2021/10/27 04:47:03;;;;;;;25.42;22.83;;;;;;;;;;5086251;28;24745;-58
2021/10/27 04:49:28;;;;;;;23.77;21.37;;;;;;;;;;5084318;28;24760;-58
2021/10/27 04:51:53;;;;;;;23.13;20.73;;;;;;;;;;5080874;28;24908;-58
2021/10/27 04:54:18;;;;;;;22.73;20.50;;;;;;;;;;5080998;28;24402;-58
2021/10/27 04:56:43;;;;;;;22.10;19.90;;;;;;;;;;5086326;28;24826;-58
2021/10/27 04:59:10;;;;;;;21.98;19.70;;;;;;;;;;5085742;28;24390;-58
2021/10/27 05:01:35;;;;;;;21.27;19.17;;;;;;;;;;5086381;28;24991;-58
2021/10/27 05:04:00;;;;;;;21.20;19.00;;;;;;;;;;5086372;28;24470;-58
2021/10/27 05:06:25;;;;;;;22.23;20.13;;;;;;;;;;5080207;28;24394;-58
2021/10/27 05:08:51;;;;;;;22.85;20.45;;;;;;;;;;5080576;28;24414;-59
2021/10/27 05:11:16;;;;;;;22.70;20.40;;;;;;;;;;5084368;28;24765;-58
2021/10/27 05:13:41;;;;;;;22.42;19.80;;;;;;;;;;5085842;28;24482;-59
2021/10/27 05:16:07;;;;;;;25.17;22.67;;;;;;;;;;5085707;28;24943;-59
2021/10/27 05:18:32;;;;;;;21.70;19.50;;;;;;;;;;5084098;28;24859;-59
2021/10/27 05:20:57;;;;;;;22.63;20.23;;;;;;;;;;5082146;28;24383;-59
2021/10/27 05:23:23;;;;;;;22.10;19.90;;;;;;;;;;5080070;28;24455;-59
2021/10/27 05:25:48;;;;;;;22.25;20.00;;;;;;;;;;5082176;28;24397;-59
2021/10/27 05:28:13;;;;;;;22.10;19.80;;;;;;;;;;5083718;28;24746;-59
2021/10/27 05:30:39;;;;;;;21.53;19.33;;;;;;;;;;5098444;28;24500;-59
2021/10/27 05:33:04;;;;;;;24.00;21.23;;;;;;;;;;5106144;28;24539;-59
2021/10/27 05:35:30;;;;;;;23.03;20.53;;;;;;;;;;5103718;28;24508;-59
2021/10/27 05:37:55;;;;;;;22.75;20.45;;;;;;;;;;5100117;28;24474;-58
2021/10/27 05:40:21;;;;;;;23.40;20.57;;;;;;;;;;5100272;28;24390;-59
2021/10/27 05:42:46;;;;;;;22.87;20.47;;;;;;;;;;5105685;28;24452;-59
2021/10/27 05:45:12;;;;;;;23.20;20.90;;;;;;;;;;5104988;28;24402;-59
2021/10/27 05:47:40;;;;;;;22.87;20.47;;;;;;;;;;5104838;28;25074;-59
2021/10/27 05:50:22;;;;;;;21.35;19.35;;;;;;;;;;5105534;28;24405;-58
2021/10/27 05:55:34;;;;;;;22.65;20.38;;;;;;;;;;5099682;28;24564;-59
2021/10/27 05:58:03;;;;;;;24.30;21.83;;;;;;;;;;5105683;28;24397;-59
2021/10/27 06:00:29;;;;;;;25.47;22.97;;;;;;;;;;5103709;28;24394;-59
2021/10/27 06:02:54;;;;;;;24.53;22.20;;;;;;;;;;5105520;28;24397;-59
2021/10/27 06:05:20;;;;;;;26.27;23.57;;;;;;;;;;5103369;28;24756;-59
2021/10/27 06:07:46;;;;;;;23.90;21.40;;;;;;;;;;5099850;28;24392;-59
2021/10/27 06:10:18;;;;;;;23.63;21.33;;;;;;;;;;5101356;28;24752;-59
2021/10/27 06:12:43;;;;;;;24.75;22.15;;;;;;;;;;5105255;28;24397;-59
2021/10/27 06:15:08;;;;;;;22.40;20.20;;;;;;;;;;5105139;28;25313;-59
2021/10/27 06:17:34;;;;;;;23.10;20.80;;;;;;;;;;5102899;28;24910;-58
2021/10/27 06:19:59;;;;;;;22.02;19.83;;;;;;;;;;5105027;28;24393;-58
2021/10/27 06:22:25;;;;;;;25.70;23.20;;;;;;;;;;5099281;28;24390;-58
2021/10/27 06:24:53;;;;;;;23.83;21.53;;;;;;;;;;5099646;28;24461;-58
2021/10/27 06:27:19;;;;;;;24.52;22.10;;;;;;;;;;5103193;28;24521;-59
2021/10/27 06:29:48;;;;;;;26.10;23.50;;;;;;;;;;5098286;28;24468;-59
2021/10/27 06:32:25;;;;;;;23.77;21.10;;;;;;;;;;5082293;28;24414;-59
2021/10/27 06:34:54;;;;;;;24.30;21.90;;;;;;;;;;5084578;28;24410;-59
2021/10/27 06:47:40;;;;;;;22.97;20.77;;;;;;;;;;5084009;28;24448;-59
2021/10/27 06:50:05;;;;;;;22.27;19.97;;;;;;;;;;5082564;28;24765;-59
2021/10/27 06:52:31;;;;;;;25.00;22.50;;;;;;;;;;5078739;28;24497;-60
2021/10/27 06:54:56;;;;;;;21.30;19.20;;;;;;;;;;5078509;28;25056;-60
2021/10/27 06:57:25;;;;;;;21.80;19.70;;;;;;;;;;5083941;28;24438;-59
2021/10/27 06:59:54;;;;;;;21.88;19.67;;;;;;;;;;5084189;28;24397;-58
2021/10/27 07:02:47;;;;;;;21.65;19.55;;;;;;;;;;5082338;28;24784;-59
2021/10/27 07:05:28;;;;;;;20.80;18.70;;;;;;;;;;5083956;28;24777;-58
2021/10/27 07:14:58;;;;;;;22.30;20.00;;;;;;;;;;5078386;28;24456;-59
2021/10/27 07:14:59;;;;;;;20.10;18.10;;;;;;;;;;5080579;28;24455;-59
2021/10/27 07:16:16;;;;;;;20.30;18.20;;;;;;;;;;5082007;28;24982;-59
2021/10/27 07:18:41;;;;;;;19.13;17.23;;;;;;;;;;5081879;28;24476;-59
2021/10/27 07:21:06;;;;;;;21.27;19.17;;;;;;;;;;5080170;28;24406;-59
2021/10/27 07:23:33;;;;;;;21.03;19.13;;;;;;;;;;5078514;28;24786;-59
2021/10/27 07:25:59;;;;;;;19.03;17.10;;;;;;;;;;5079942;28;24955;-59
2021/10/27 07:28:28;;;;;;;20.60;18.40;;;;;;;;;;5083195;28;24402;-59
2021/10/27 07:30:55;;;;;;;19.17;17.08;;;;;;;;;;5099667;28;24406;-59
2021/10/27 07:33:21;;;;;;;19.60;17.60;;;;;;;;;;5102199;28;24927;-59
2021/10/27 07:36:40;;;;;;;18.58;16.58;;;;;;;;;;5100240;28;24417;-59
2021/10/27 07:41:18;;;;;;;20.70;18.60;;;;;;;;;;5102442;28;24389;-58
2021/10/27 07:43:45;;;;;;;18.80;16.40;;;;;;;;;;5103802;28;24389;-59
2021/10/27 07:46:10;;;;;;;16.67;14.90;;;;;;;;;;5103816;28;24718;-59
2021/10/27 07:48:35;;;;;;;18.13;16.20;;;;;;;;;;5100249;28;24404;-59
2021/10/27 07:51:00;;;;;;;20.17;18.07;;;;;;;;;;5100028;28;24926;-58
2021/10/27 07:53:31;;;;;;;16.30;14.60;;;;;;;;;;5099082;28;24401;-58
2021/10/27 07:55:58;;;;;;;16.25;14.55;;;;;;;;;;5104029;28;25046;-59
2021/10/27 07:58:25;;;;;;;16.48;14.70;;;;;;;;;;5107141;28;24971;-59
2021/10/27 08:00:51;;;;;;;15.20;13.70;;;;;;;;;;5107878;28;24393;-59
2021/10/27 08:03:18;;;;;;;15.40;13.80;;;;;;;;;;5105879;28;24390;-59
2021/10/27 08:05:43;;;;;;;15.68;14.07;;;;;;;;;;5105450;28;25336;-59
2021/10/27 08:08:13;;;;;;;16.45;14.75;;;;;;;;;;5103532;28;24385;-59
2021/10/27 08:10:39;;;;;;;17.50;15.70;;;;;;;;;;5101918;28;24412;-59
2021/10/27 08:13:05;;;;;;;17.73;15.93;;;;;;;;;;5107566;28;24398;-59
2021/10/27 08:15:30;;;;;;;15.32;13.73;;;;;;;;;;5105066;28;25255;-58
2021/10/27 08:17:56;;;;;;;15.20;13.60;;;;;;;;;;5107172;28;24792;-59
2021/10/27 08:20:22;;;;;;;15.30;13.70;;;;;;;;;;5101570;28;24803;-59
2021/10/27 08:22:53;;;;;;;16.48;14.85;;;;;;;;;;5101833;28;24429;-59
2021/10/27 08:25:43;;;;;;;14.98;13.48;;;;;;;;;;5103437;28;24496;-59
2021/10/27 08:28:07;;;;;;;17.38;15.68;;;;;;;;;;5106366;28;24809;-59
2021/10/27 08:30:41;;;;;;;16.30;14.60;;;;;;;;;;5091821;28;24505;-58
2021/10/27 08:33:07;;;;;;;18.35;16.45;;;;;;;;;;5084760;28;24475;-59
2021/10/27 08:35:36;;;;;;;16.02;14.50;;;;;;;;;;5081219;28;24410;-59
2021/10/27 08:38:02;;;;;;;14.43;13.02;;;;;;;;;;5080556;28;25221;-59
2021/10/27 08:40:28;;;;;;;15.43;13.85;;;;;;;;;;5084895;28;24982;-59
2021/10/27 08:42:57;;;;;;;17.60;15.05;;;;;;;;;;5086935;28;24449;-58
2021/10/27 08:45:22;;;;;;;17.13;15.43;;;;;;;;;;5084444;28;24422;-59
2021/10/27 08:47:50;;;;;;;18.03;16.13;;;;;;;;;;5082700;28;24445;-58
2021/10/27 08:50:17;;;;;;;16.33;14.63;;;;;;;;;;5082784;28;24447;-59
2021/10/27 08:52:43;;;;;;;17.67;14.90;;;;;;;;;;5082442;28;25160;-59
2021/10/27 08:55:11;;;;;;;15.70;14.20;;;;;;;;;;5084511;28;24436;-59
2021/10/27 08:57:36;;;;;;;16.67;14.05;;;;;;;;;;5085546;28;24401;-59
2021/10/27 09:00:09;;;;;;;15.70;14.10;;;;;;;;;;5086145;28;24394;-59
2021/10/27 09:02:49;;;;;;;14.40;12.90;;;;;;;;;;5080529;28;24402;-58
2021/10/27 09:35:55;;;;;;;16.00;14.40;;;;;;;;;;5103728;28;24404;-58
2021/10/27 09:38:56;;;;;;;16.85;15.07;;;;;;;;;;5103554;28;24827;-59
2021/10/27 09:47:35;;;;;;;12.95;11.65;;;;;;;;;;5102208;28;24392;-58
2021/10/27 10:04:30;;;;;;;4.32;4.03;;;;;;;;;;5101293;28;24722;-59
2021/10/27 10:06:38;;;;;;;4.03;2.80;;;;;;;;;;5097402;28;24963;-58
2021/10/27 10:09:03;;;;;;;2.40;2.20;;;;;;;;;;5104881;28;24481;-59
2021/10/27 10:11:30;;;;;;;2.00;1.90;;;;;;;;;;5103186;28;24500;-59
2021/10/27 10:13:57;;;;;;;2.80;2.10;;;;;;;;;;5103240;28;24381;-59
2021/10/27 10:16:22;;;;;;;2.67;2.17;;;;;;;;;;5098744;28;24486;-62
2021/10/27 10:18:48;;;;;;;2.83;2.00;;;;;;;;;;5101135;28;24923;-59
2021/10/27 10:21:14;;;;;;;3.50;2.60;;;;;;;;;;5101083;28;24394;-59
2021/10/27 10:23:40;;;;;;;4.53;2.95;;;;;;;;;;5104938;28;24396;-60
2021/10/27 10:26:08;;;;;;;11.10;7.00;;;;;;;;;;5104674;28;24436;-59
2021/10/27 10:28:40;;;;;;;17.23;9.85;;;;;;;;;;5102659;28;24991;-59
2021/10/27 10:31:07;;;;;;;8.80;5.70;;;;;;;;;;5082940;27;24465;-59
2021/10/27 10:33:38;;;;;;;65.75;37.33;;;;;;;;;;5078513;28;24399;-59
2021/10/27 10:36:08;;;;;;;47.15;26.88;;;;;;;;;;5081784;28;24457;-58
2021/10/27 10:38:45;;;;;;;32.70;18.50;;;;;;;;;;5082191;28;24394;-59
2021/10/27 10:41:22;;;;;;;44.78;24.85;;;;;;;;;;5084133;28;25010;-59
2021/10/27 10:44:25;;;;;;;36.63;22.05;;;;;;;;;;5082211;28;24451;-57
2021/10/27 10:56:16;;;;;;;4.60;3.80;;;;;;;;;;5081924;28;24429;-58
2021/10/27 11:26:30;;;;;;;3.58;3.28;;;;;;;;;;5077944;28;24447;-58
2021/10/27 11:37:30;;;;;;;2.10;2.00;;;;;;;;;;5106262;28;24432;-58
2021/10/27 11:40:06;;;;;;;2.10;2.00;;;;;;;;;;5107962;28;24929;-58
2021/10/27 11:42:41;;;;;;;2.30;2.10;;;;;;;;;;5105943;27;24559;-58
2021/10/27 11:45:16;;;;;;;2.17;1.90;;;;;;;;;;5104073;28;24910;-58
2021/10/27 11:47:43;;;;;;;2.10;1.60;;;;;;;;;;5102007;28;25002;-58
2021/10/27 11:50:11;;;;;;;1.70;1.60;;;;;;;;;;5104266;28;24393;-57
2021/10/27 11:52:37;;;;;;;3.33;1.60;;;;;;;;;;5108069;27;24385;-58
2021/10/27 11:55:05;;;;;;;1.70;1.50;;;;;;;;;;5107768;28;24460;-58
2021/10/27 11:57:30;;;;;;;1.50;1.40;;;;;;;;;;5105470;28;24802;-58
2021/10/27 11:59:55;;;;;;;1.40;1.30;;;;;;;;;;5101852;28;24393;-58
2021/10/27 12:02:21;;;;;;;1.40;1.30;;;;;;;;;;5102571;28;24515;-58
2021/10/27 12:04:47;;;;;;;2.15;1.50;;;;;;;;;;5105731;28;24943;-58
2021/10/27 12:07:32;;;;;;;1.40;1.20;;;;;;;;;;5105939;28;24443;-59
2021/10/27 12:10:05;;;;;;;1.10;1.00;;;;;;;;;;5107239;28;24404;-58
2021/10/27 12:17:51;;;;;;;0.90;0.82;;;;;;;;;;5101866;27;24459;-59
2021/10/27 12:20:28;;;;;;;1.15;1.05;;;;;;;;;;5103639;28;24404;-58
2021/10/27 12:22:56;;;;;;;0.82;0.80;;;;;;;;;;5107324;28;24405;-58
2021/10/27 12:25:22;;;;;;;1.05;0.95;;;;;;;;;;5105537;28;25408;-58
2021/10/27 12:27:47;;;;;;;1.20;1.00;;;;;;;;;;5104484;28;24428;-58
2021/10/27 12:30:15;;;;;;;0.75;0.75;;;;;;;;;;5083051;28;24437;-58
2021/10/27 12:32:51;;;;;;;0.90;0.90;;;;;;;;;;5080983;28;25415;-58
2021/10/27 12:35:16;;;;;;;1.77;1.00;;;;;;;;;;5082797;28;25238;-60
2021/10/27 12:37:46;;;;;;;0.80;0.80;;;;;;;;;;5086403;28;24398;-59
2021/10/27 12:40:25;;;;;;;1.25;1.00;;;;;;;;;;5085892;28;24406;-59
2021/10/27 12:43:08;;;;;;;0.90;0.85;;;;;;;;;;5086596;28;24398;-59
2021/10/27 12:45:41;;;;;;;1.30;1.20;;;;;;;;;;5080691;28;24404;-60
2021/10/27 12:48:09;;;;;;;1.15;1.05;;;;;;;;;;5082595;28;24468;-58
2021/10/27 12:50:35;;;;;;;1.35;1.25;;;;;;;;;;5082711;28;24462;-59
2021/10/27 12:53:02;;;;;;;1.20;1.10;;;;;;;;;;5086643;28;24390;-59
2021/10/27 12:55:29;;;;;;;1.10;1.10;;;;;;;;;;5084034;28;24974;-59
2021/10/27 12:57:56;;;;;;;1.10;1.00;;;;;;;;;;5084080;28;24825;-58
2021/10/27 13:00:31;;;;;;;1.50;1.40;;;;;;;;;;5080331;28;24421;-58
2021/10/27 13:03:45;;;;;;;1.50;1.40;;;;;;;;;;5080519;28;24406;-59
2021/10/27 13:11:26;;;;;;;1.00;0.90;;;;;;;;;;5085978;28;24401;-59
2021/10/27 13:18:54;;;;;;;1.80;1.65;;;;;;;;;;5081447;28;24398;-58
2021/10/27 13:21:31;;;;;;;1.75;1.60;;;;;;;;;;5085671;28;24391;-58
2021/10/27 13:29:38;;;;;;;1.83;1.73;;;;;;;;;;5095142;28;24531;-58
2021/10/27 13:32:05;;;;;;;1.80;1.50;;;;;;;;;;5099998;28;24951;-59
2021/10/27 13:34:30;;;;;;;1.60;1.50;;;;;;;;;;5101944;28;24756;-58
2021/10/27 13:36:56;;;;;;;1.90;1.63;;;;;;;;;;5105990;28;24973;-59
2021/10/27 13:39:22;;;;;;;1.53;1.40;;;;;;;;;;5103883;28;24609;-59
2021/10/27 13:41:56;;;;;;;1.50;1.40;;;;;;;;;;5105639;28;24389;-58
2021/10/27 13:44:24;;;;;;;1.85;1.75;;;;;;;;;;5101807;28;24494;-58
2021/10/27 13:47:03;;;;;;;1.75;1.65;;;;;;;;;;5099713;28;24389;-59
2021/10/27 13:49:51;;;;;;;1.25;1.15;;;;;;;;;;5099904;28;24461;-58
2021/10/27 14:08:51;;;;;;;2.00;1.80;;;;;;;;;;5103194;28;24386;-60
2021/10/27 14:14:04;;;;;;;1.90;1.80;;;;;;;;;;5102896;27;24389;-58
2021/10/27 14:16:50;;;;;;;2.22;2.00;;;;;;;;;;5099355;28;24426;-58
2021/10/27 14:22:25;;;;;;;2.08;1.98;;;;;;;;;;5103394;28;24504;-58
2021/10/27 14:41:26;;;;;;;2.63;2.00;;;;;;;;;;5063904;28;24939;-58
2021/10/27 15:22:51;;;;;;;2.30;2.20;;;;;;;;;;5061187;28;24758;-59
2021/10/27 15:40:35;;;;;;;2.70;2.50;;;;;;;;;;5063054;28;24390;-59
2021/10/27 15:43:20;;;;;;;2.60;2.40;;;;;;;;;;5063077;28;24390;-59
2021/10/27 15:51:08;;;;;;;3.55;3.25;;;;;;;;;;5062527;28;24777;-59
2021/10/27 15:53:36;;;;;;;3.50;3.30;;;;;;;;;;5061045;28;24959;-60
2021/10/27 15:56:03;;;;;;;3.95;3.65;;;;;;;;;;5062804;28;24536;-58
2021/10/27 15:58:28;;;;;;;3.30;3.10;;;;;;;;;;5058994;28;24916;-59
2021/10/27 16:00:53;;;;;;;4.00;3.70;;;;;;;;;;5057358;28;24448;-59
2021/10/27 16:03:18;;;;;;;3.47;3.27;;;;;;;;;;5059457;28;24959;-59
2021/10/27 16:05:46;;;;;;;3.90;3.60;;;;;;;;;;5060509;28;24967;-59
2021/10/27 16:08:14;;;;;;;3.42;3.22;;;;;;;;;;5062662;28;24521;-59
2021/10/27 16:10:39;;;;;;;3.70;3.40;;;;;;;;;;5062569;28;24761;-59
2021/10/27 16:13:05;;;;;;;4.70;4.30;;;;;;;;;;5060830;28;24398;-59
2021/10/27 16:15:38;;;;;;;5.17;4.70;;;;;;;;;;5059599;28;24947;-59
2021/10/27 16:18:04;;;;;;;4.40;4.00;;;;;;;;;;5060693;28;24395;-59
2021/10/27 16:20:30;;;;;;;4.10;3.80;;;;;;;;;;5066121;28;24523;-59
2021/10/27 16:22:55;;;;;;;4.28;3.97;;;;;;;;;;5066402;28;24913;-59
2021/10/27 16:25:20;;;;;;;3.80;3.50;;;;;;;;;;5064782;28;24565;-59
2021/10/27 16:27:45;;;;;;;4.20;3.90;;;;;;;;;;5068427;28;24417;-60
2021/10/27 16:30:11;;;;;;;4.10;3.80;;;;;;;;;;5103316;28;24393;-59
2021/10/27 16:32:36;;;;;;;4.00;3.70;;;;;;;;;;5101105;28;24432;-59
2021/10/27 16:35:01;;;;;;;4.23;3.83;;;;;;;;;;5102796;28;25088;-60
2021/10/27 16:37:27;;;;;;;4.00;3.70;;;;;;;;;;5106718;28;24487;-59
2021/10/27 16:39:53;;;;;;;4.30;3.90;;;;;;;;;;5106426;28;24490;-59
2021/10/27 16:42:18;;;;;;;4.10;3.80;;;;;;;;;;5105118;28;24410;-59
2021/10/27 16:44:45;;;;;;;4.00;3.70;;;;;;;;;;5101057;28;24413;-58
2021/10/27 16:47:10;;;;;;;3.80;3.50;;;;;;;;;;5102991;28;24504;-59
2021/10/27 16:49:36;;;;;;;3.70;3.40;;;;;;;;;;5102507;28;24386;-60
2021/10/27 16:52:01;;;;;;;3.80;3.50;;;;;;;;;;5106766;28;24393;-59
2021/10/27 16:54:26;;;;;;;4.80;4.40;;;;;;;;;;5104729;28;24417;-59
2021/10/27 16:56:51;;;;;;;5.03;4.63;;;;;;;;;;5106351;28;25024;-59
2021/10/27 16:59:16;;;;;;;5.13;4.73;;;;;;;;;;5102648;28;24932;-59
2021/10/27 17:01:45;;;;;;;4.30;4.00;;;;;;;;;;5101084;28;24402;-59
2021/10/27 17:04:10;;;;;;;6.88;5.40;;;;;;;;;;5104512;28;24901;-60
2021/10/27 17:06:36;;;;;;;6.32;5.72;;;;;;;;;;5102813;28;24451;-60
2021/10/27 17:09:02;;;;;;;6.93;6.22;;;;;;;;;;5106330;28;24389;-59
2021/10/27 17:11:27;;;;;;;9.15;8.18;;;;;;;;;;5104452;28;24402;-59
2021/10/27 17:13:53;;;;;;;6.40;5.80;;;;;;;;;;5102670;28;24480;-58
2021/10/27 17:16:19;;;;;;;5.13;4.72;;;;;;;;;;5100882;28;24935;-59
2021/10/27 17:18:44;;;;;;;5.00;4.50;;;;;;;;;;5104007;28;24432;-58
2021/10/27 17:21:10;;;;;;;4.90;4.40;;;;;;;;;;5105795;28;24413;-59
2021/10/27 17:23:37;;;;;;;4.10;3.80;;;;;;;;;;5104224;28;24390;-59
2021/10/27 17:26:02;;;;;;;4.20;3.90;;;;;;;;;;5105912;28;24405;-60
2021/10/27 17:28:28;;;;;;;4.63;4.22;;;;;;;;;;5082433;28;24497;-59
2021/10/27 17:30:53;;;;;;;5.23;4.83;;;;;;;;;;5079547;28;24432;-59
2021/10/27 17:33:18;;;;;;;4.90;4.50;;;;;;;;;;5081686;28;24973;-59
2021/10/27 17:35:44;;;;;;;4.10;3.80;;;;;;;;;;5083691;28;24429;-59
2021/10/27 17:38:10;;;;;;;3.60;3.40;;;;;;;;;;5085479;28;24838;-60
2021/10/27 17:40:39;;;;;;;5.50;5.10;;;;;;;;;;5083115;28;25001;-59
2021/10/27 17:43:05;;;;;;;5.78;5.28;;;;;;;;;;5081401;28;25050;-59
2021/10/27 17:45:37;;;;;;;4.78;4.38;;;;;;;;;;5079713;28;24777;-59
2021/10/27 17:48:09;;;;;;;4.20;3.90;;;;;;;;;;5081437;28;24402;-59
2021/10/27 18:00:53;;;;;;;4.32;4.03;;;;;;;;;;5079305;28;24481;-59
2021/10/27 18:03:19;;;;;;;5.40;4.90;;;;;;;;;;5079620;28;24414;-60
2021/10/27 18:05:44;;;;;;;6.70;6.10;;;;;;;;;;5082948;28;24394;-59
2021/10/27 18:08:13;;;;;;;6.90;6.30;;;;;;;;;;5083352;28;24448;-59
2021/10/27 18:10:40;;;;;;;7.07;6.47;;;;;;;;;;5084410;28;24799;-59
2021/10/27 18:13:07;;;;;;;7.20;6.60;;;;;;;;;;5084402;28;24422;-60
2021/10/27 18:15:38;;;;;;;7.20;6.55;;;;;;;;;;5079050;28;24413;-58
2021/10/27 18:18:05;;;;;;;7.90;7.20;;;;;;;;;;5079153;28;25352;-59
2021/10/27 18:20:39;;;;;;;7.00;6.40;;;;;;;;;;5078916;28;24386;-59
2021/10/27 18:23:27;;;;;;;7.07;6.40;;;;;;;;;;5080494;28;24924;-58
2021/10/27 18:37:08;;;;;;;10.55;8.40;;;;;;;;;;5061654;28;25070;-60
2021/10/27 18:39:45;;;;;;;8.60;7.80;;;;;;;;;;5063229;28;24399;-60
2021/10/27 18:42:12;;;;;;;8.88;8.07;;;;;;;;;;5063955;28;24960;-60
2021/10/27 18:44:38;;;;;;;9.07;8.10;;;;;;;;;;5058704;28;24518;-60